sensor_id;sensor_type;location;lat;lon;timestamp;pressure;altitude;pressure_sealevel;temperature;humidity
47524;BME280;33253;42.144;25.884;2023-04-28T00:00:49;100658.94;;;11.31;100.00
47524;BME280;33253;42.144;25.884;2023-04-28T00:03:15;100655.41;;;11.29;100.00
47524;BME280;33253;42.144;25.884;2023-04-28T00:05:40;100653.72;;;11.29;100.00
47524;BME280;33253;42.144;25.884;2023-04-28T00:08:06;100647.78;;;11.32;100.00
47524;BME280;33253;42.144;25.884;2023-04-28T00:10:32;100652.38;;;11.39;100.00
47524;BME280;33253;42.144;25.884;2023-04-28T00:12:57;100650.06;;;11.47;100.00
47524;BME280;33253;42.144;25.884;2023-04-28T00:15:23;100651.47;;;11.39;100.00
47524;BME280;33253;42.144;25.884;2023-04-28T00:17:48;100650.47;;;11.35;100.00
47524;BME280;33253;42.144;25.884;2023-04-28T00:20:14;100660.94;;;11.38;100.00
47524;BME280;33253;42.144;25.884;2023-04-28T00:22:40;100645.97;;;11.29;100.00
47524;BME280;33253;42.144;25.884;2023-04-28T00:25:07;100637.94;;;11.22;100.00
47524;BME280;33253;42.144;25.884;2023-04-28T00:27:33;100668.81;;;11.19;100.00
47524;BME280;33253;42.144;25.884;2023-04-28T00:29:59;100641.47;;;10.78;100.00
47524;BME280;33253;42.144;25.884;2023-04-28T00:32:24;100681.47;;;10.88;100.00
47524;BME280;33253;42.144;25.884;2023-04-28T00:34:50;100677.16;;;10.89;100.00
47524;BME280;33253;42.144;25.884;2023-04-28T00:37:16;100679.97;;;10.95;100.00
47524;BME280;33253;42.144;25.884;2023-04-28T00:39:41;100677.44;;;10.96;100.00
47524;BME280;33253;42.144;25.884;2023-04-28T00:42:11;100679.28;;;10.99;100.00
47524;BME280;33253;42.144;25.884;2023-04-28T00:44:36;100682.63;;;10.96;100.00
47524;BME280;33253;42.144;25.884;2023-04-28T00:47:02;100669.78;;;10.98;100.00
47524;BME280;33253;42.144;25.884;2023-04-28T00:49:28;100683.75;;;11.03;100.00
47524;BME280;33253;42.144;25.884;2023-04-28T00:51:54;100683.22;;;11.12;100.00
47524;BME280;33253;42.144;25.884;2023-04-28T00:54:19;100689.22;;;11.11;100.00
47524;BME280;33253;42.144;25.884;2023-04-28T00:56:45;100678.34;;;10.97;100.00
47524;BME280;33253;42.144;25.884;2023-04-28T00:59:11;100690.50;;;10.99;100.00
47524;BME280;33253;42.144;25.884;2023-04-28T01:01:37;100679.28;;;10.99;100.00
47524;BME280;33253;42.144;25.884;2023-04-28T01:04:02;100670.41;;;10.92;100.00
47524;BME280;33253;42.144;25.884;2023-04-28T01:06:28;100700.41;;;10.89;100.00
47524;BME280;33253;42.144;25.884;2023-04-28T01:08:55;100684.63;;;10.81;100.00
47524;BME280;33253;42.144;25.884;2023-04-28T01:11:20;100706.22;;;10.83;100.00
47524;BME280;33253;42.144;25.884;2023-04-28T01:13:45;100702.59;;;10.57;100.00
47524;BME280;33253;42.144;25.884;2023-04-28T01:16:11;100714.91;;;10.64;100.00
47524;BME280;33253;42.144;25.884;2023-04-28T01:18:37;100711.91;;;10.74;100.00
47524;BME280;33253;42.144;25.884;2023-04-28T01:21:03;100707.50;;;10.72;100.00
47524;BME280;33253;42.144;25.884;2023-04-28T01:23:28;100721.59;;;10.80;100.00
47524;BME280;33253;42.144;25.884;2023-04-28T01:25:54;100701.75;;;10.79;100.00
47524;BME280;33253;42.144;25.884;2023-04-28T01:28:19;100723.41;;;10.82;100.00
47524;BME280;33253;42.144;25.884;2023-04-28T01:30:45;100712.78;;;10.75;100.00
47524;BME280;33253;42.144;25.884;2023-04-28T01:33:10;100719.50;;;10.71;100.00
47524;BME280;33253;42.144;25.884;2023-04-28T01:35:37;100709.25;;;10.73;100.00
47524;BME280;33253;42.144;25.884;2023-04-28T01:38:02;100707.97;;;10.63;100.00
47524;BME280;33253;42.144;25.884;2023-04-28T01:40:28;100716.81;;;10.68;100.00
47524;BME280;33253;42.144;25.884;2023-04-28T01:42:53;100678.28;;;10.51;100.00
47524;BME280;33253;42.144;25.884;2023-04-28T01:45:19;100728.31;;;10.76;100.00
47524;BME280;33253;42.144;25.884;2023-04-28T01:47:44;100716.19;;;10.74;100.00
47524;BME280;33253;42.144;25.884;2023-04-28T01:50:10;100728.25;;;10.96;100.00
47524;BME280;33253;42.144;25.884;2023-04-28T01:52:35;100731.06;;;11.02;100.00
47524;BME280;33253;42.144;25.884;2023-04-28T01:55:01;100736.72;;;10.92;100.00
47524;BME280;33253;42.144;25.884;2023-04-28T01:57:26;100729.50;;;10.62;100.00
47524;BME280;33253;42.144;25.884;2023-04-28T01:59:53;100696.69;;;10.38;100.00
47524;BME280;33253;42.144;25.884;2023-04-28T02:02:18;100694.22;;;10.41;100.00
47524;BME280;33253;42.144;25.884;2023-04-28T02:04:44;100737.72;;;10.74;100.00
47524;BME280;33253;42.144;25.884;2023-04-28T02:07:09;100756.22;;;10.85;100.00
47524;BME280;33253;42.144;25.884;2023-04-28T02:09:35;100743.06;;;10.79;100.00
47524;BME280;33253;42.144;25.884;2023-04-28T02:12:00;100743.75;;;10.75;99.84
47524;BME280;33253;42.144;25.884;2023-04-28T02:14:27;100760.13;;;10.96;100.00
47524;BME280;33253;42.144;25.884;2023-04-28T02:16:52;100770.44;;;10.96;100.00
47524;BME280;33253;42.144;25.884;2023-04-28T02:19:18;100757.00;;;11.05;100.00
47524;BME280;33253;42.144;25.884;2023-04-28T02:21:43;100765.72;;;11.07;100.00
47524;BME280;33253;42.144;25.884;2023-04-28T02:24:08;100726.75;;;10.80;100.00
47524;BME280;33253;42.144;25.884;2023-04-28T02:26:34;100760.31;;;11.01;100.00
47524;BME280;33253;42.144;25.884;2023-04-28T02:29:00;100768.63;;;10.94;100.00
47524;BME280;33253;42.144;25.884;2023-04-28T02:31:28;100772.41;;;11.02;100.00
47524;BME280;33253;42.144;25.884;2023-04-28T02:33:54;100758.56;;;10.79;100.00
47524;BME280;33253;42.144;25.884;2023-04-28T02:36:20;100777.03;;;10.67;100.00
47524;BME280;33253;42.144;25.884;2023-04-28T02:38:46;100769.72;;;10.57;100.00
47524;BME280;33253;42.144;25.884;2023-04-28T02:41:11;100779.47;;;10.64;100.00
47524;BME280;33253;42.144;25.884;2023-04-28T02:43:39;100765.28;;;10.54;100.00
47524;BME280;33253;42.144;25.884;2023-04-28T02:46:05;100790.19;;;10.52;100.00
47524;BME280;33253;42.144;25.884;2023-04-28T02:48:31;100776.41;;;10.32;100.00
47524;BME280;33253;42.144;25.884;2023-04-28T02:50:59;100738.31;;;10.07;100.00
47524;BME280;33253;42.144;25.884;2023-04-28T02:53:25;100787.38;;;10.28;100.00
47524;BME280;33253;42.144;25.884;2023-04-28T02:55:50;100799.34;;;10.26;100.00
47524;BME280;33253;42.144;25.884;2023-04-28T02:58:16;100795.88;;;10.25;100.00
47524;BME280;33253;42.144;25.884;2023-04-28T03:00:42;100790.06;;;10.10;100.00
47524;BME280;33253;42.144;25.884;2023-04-28T03:03:07;100766.84;;;9.90;100.00
47524;BME280;33253;42.144;25.884;2023-04-28T03:05:32;100811.63;;;10.12;100.00
47524;BME280;33253;42.144;25.884;2023-04-28T03:07:58;100802.75;;;10.05;100.00
47524;BME280;33253;42.144;25.884;2023-04-28T03:10:24;100807.16;;;10.08;100.00
47524;BME280;33253;42.144;25.884;2023-04-28T03:12:50;100805.31;;;9.85;100.00
47524;BME280;33253;42.144;25.884;2023-04-28T03:15:15;100809.53;;;9.83;100.00
47524;BME280;33253;42.144;25.884;2023-04-28T03:17:42;100815.84;;;9.90;100.00
47524;BME280;33253;42.144;25.884;2023-04-28T03:20:09;100822.59;;;9.88;100.00
47524;BME280;33253;42.144;25.884;2023-04-28T03:22:35;100789.47;;;9.58;100.00
47524;BME280;33253;42.144;25.884;2023-04-28T03:25:01;100811.66;;;9.54;100.00
47524;BME280;33253;42.144;25.884;2023-04-28T03:27:26;100823.13;;;9.43;100.00
47524;BME280;33253;42.144;25.884;2023-04-28T03:29:52;100802.66;;;9.28;100.00
47524;BME280;33253;42.144;25.884;2023-04-28T03:32:18;100830.50;;;9.35;100.00
47524;BME280;33253;42.144;25.884;2023-04-28T03:34:43;100850.72;;;9.46;100.00
47524;BME280;33253;42.144;25.884;2023-04-28T03:37:09;100852.44;;;9.45;100.00
47524;BME280;33253;42.144;25.884;2023-04-28T03:39:34;100854.72;;;9.39;100.00
47524;BME280;33253;42.144;25.884;2023-04-28T03:42:00;100862.22;;;9.34;100.00
47524;BME280;33253;42.144;25.884;2023-04-28T03:44:25;100828.94;;;9.03;100.00
47524;BME280;33253;42.144;25.884;2023-04-28T03:46:51;100870.69;;;9.32;100.00
47524;BME280;33253;42.144;25.884;2023-04-28T03:49:16;100870.50;;;9.27;100.00
47524;BME280;33253;42.144;25.884;2023-04-28T03:51:42;100865.97;;;9.23;100.00
47524;BME280;33253;42.144;25.884;2023-04-28T03:54:07;100877.31;;;9.27;100.00
47524;BME280;33253;42.144;25.884;2023-04-28T03:56:33;100881.00;;;9.32;100.00
47524;BME280;33253;42.144;25.884;2023-04-28T03:58:59;100866.28;;;9.11;100.00
47524;BME280;33253;42.144;25.884;2023-04-28T04:01:25;100889.47;;;9.29;100.00
47524;BME280;33253;42.144;25.884;2023-04-28T04:03:50;100890.28;;;9.28;100.00
47524;BME280;33253;42.144;25.884;2023-04-28T04:06:16;100843.97;;;9.12;100.00
47524;BME280;33253;42.144;25.884;2023-04-28T04:08:42;100843.03;;;9.28;100.00
47524;BME280;33253;42.144;25.884;2023-04-28T04:11:07;100898.16;;;9.49;100.00
47524;BME280;33253;42.144;25.884;2023-04-28T04:13:33;100903.31;;;9.49;100.00
47524;BME280;33253;42.144;25.884;2023-04-28T04:15:58;100905.69;;;9.63;100.00
47524;BME280;33253;42.144;25.884;2023-04-28T04:18:24;100915.78;;;9.76;100.00
47524;BME280;33253;42.144;25.884;2023-04-28T04:20:49;100912.81;;;9.86;100.00
47524;BME280;33253;42.144;25.884;2023-04-28T04:23:17;100909.94;;;9.80;100.00
47524;BME280;33253;42.144;25.884;2023-04-28T04:25:43;100891.00;;;9.62;100.00
47524;BME280;33253;42.144;25.884;2023-04-28T04:28:08;100875.09;;;9.34;100.00
47524;BME280;33253;42.144;25.884;2023-04-28T04:30:34;100896.63;;;9.53;100.00
47524;BME280;33253;42.144;25.884;2023-04-28T04:32:59;100875.41;;;9.41;100.00
47524;BME280;33253;42.144;25.884;2023-04-28T04:35:25;100930.34;;;9.76;100.00
47524;BME280;33253;42.144;25.884;2023-04-28T04:37:50;100925.13;;;9.74;100.00
47524;BME280;33253;42.144;25.884;2023-04-28T04:40:16;100926.81;;;9.74;100.00
47524;BME280;33253;42.144;25.884;2023-04-28T04:42:41;100928.59;;;9.57;100.00
47524;BME280;33253;42.144;25.884;2023-04-28T04:45:07;100928.00;;;9.62;100.00
47524;BME280;33253;42.144;25.884;2023-04-28T04:47:32;100892.34;;;9.35;100.00
47524;BME280;33253;42.144;25.884;2023-04-28T04:49:58;100935.13;;;9.68;100.00
47524;BME280;33253;42.144;25.884;2023-04-28T04:52:23;100896.03;;;9.41;100.00
47524;BME280;33253;42.144;25.884;2023-04-28T04:54:49;100902.81;;;9.38;100.00
47524;BME280;33253;42.144;25.884;2023-04-28T04:57:14;100933.00;;;9.59;100.00
47524;BME280;33253;42.144;25.884;2023-04-28T04:59:40;100946.19;;;9.83;100.00
47524;BME280;33253;42.144;25.884;2023-04-28T05:02:05;100961.06;;;10.07;100.00
47524;BME280;33253;42.144;25.884;2023-04-28T05:04:31;100955.09;;;10.08;100.00
47524;BME280;33253;42.144;25.884;2023-04-28T05:06:56;100966.25;;;10.27;100.00
47524;BME280;33253;42.144;25.884;2023-04-28T05:09:22;100966.03;;;10.40;100.00
47524;BME280;33253;42.144;25.884;2023-04-28T05:11:47;100927.47;;;10.25;100.00
47524;BME280;33253;42.144;25.884;2023-04-28T05:14:13;100973.31;;;10.49;97.48
47524;BME280;33253;42.144;25.884;2023-04-28T05:16:40;100973.19;;;10.46;95.41
47524;BME280;33253;42.144;25.884;2023-04-28T05:19:06;100961.97;;;10.45;96.72
47524;BME280;33253;42.144;25.884;2023-04-28T05:21:31;100967.34;;;10.50;96.67
47524;BME280;33253;42.144;25.884;2023-04-28T05:23:56;100977.53;;;10.66;95.97
47524;BME280;33253;42.144;25.884;2023-04-28T05:26:22;100948.19;;;10.64;97.87
47524;BME280;33253;42.144;25.884;2023-04-28T05:28:48;100979.78;;;10.98;97.50
47524;BME280;33253;42.144;25.884;2023-04-28T05:31:13;100980.13;;;11.06;96.31
47524;BME280;33253;42.144;25.884;2023-04-28T05:33:39;100991.84;;;11.19;97.05
47524;BME280;33253;42.144;25.884;2023-04-28T05:36:04;100951.81;;;11.09;97.13
47524;BME280;33253;42.144;25.884;2023-04-28T05:38:30;100994.00;;;11.29;94.67
47524;BME280;33253;42.144;25.884;2023-04-28T05:40:59;100996.47;;;11.26;95.32
47524;BME280;33253;42.144;25.884;2023-04-28T05:43:25;101008.59;;;11.27;95.19
47524;BME280;33253;42.144;25.884;2023-04-28T05:45:50;101008.69;;;11.30;95.22
47524;BME280;33253;42.144;25.884;2023-04-28T05:48:16;101012.09;;;11.29;93.98
47524;BME280;33253;42.144;25.884;2023-04-28T05:50:41;100968.75;;;11.02;95.16
47524;BME280;33253;42.144;25.884;2023-04-28T05:53:07;101011.72;;;11.20;93.85
47524;BME280;33253;42.144;25.884;2023-04-28T05:55:33;101006.34;;;11.15;92.28
47524;BME280;33253;42.144;25.884;2023-04-28T05:58:00;101018.44;;;11.16;92.76
47524;BME280;33253;42.144;25.884;2023-04-28T06:00:26;101003.69;;;11.13;90.89
47524;BME280;33253;42.144;25.884;2023-04-28T06:02:51;101016.81;;;11.18;92.36
47524;BME280;33253;42.144;25.884;2023-04-28T06:05:17;101024.63;;;11.20;89.79
47524;BME280;33253;42.144;25.884;2023-04-28T06:07:43;101026.69;;;11.27;89.42
47524;BME280;33253;42.144;25.884;2023-04-28T06:10:09;101022.31;;;11.26;91.25
47524;BME280;33253;42.144;25.884;2023-04-28T06:12:34;101020.53;;;11.25;90.69
47524;BME280;33253;42.144;25.884;2023-04-28T06:15:00;101027.88;;;11.35;90.50
47524;BME280;33253;42.144;25.884;2023-04-28T06:17:26;100932.56;;;10.61;88.74
47524;BME280;33253;42.144;25.884;2023-04-28T06:19:51;101039.19;;;11.17;89.84
47524;BME280;33253;42.144;25.884;2023-04-28T06:22:19;101033.91;;;11.14;89.49
47524;BME280;33253;42.144;25.884;2023-04-28T06:24:44;101031.25;;;11.13;88.88
47524;BME280;33253;42.144;25.884;2023-04-28T06:27:10;101042.59;;;11.16;90.67
47524;BME280;33253;42.144;25.884;2023-04-28T06:29:36;101023.78;;;11.19;91.05
47524;BME280;33253;42.144;25.884;2023-04-28T06:32:01;101036.25;;;11.29;91.24
47524;BME280;33253;42.144;25.884;2023-04-28T06:34:27;101031.41;;;11.37;92.33
47524;BME280;33253;42.144;25.884;2023-04-28T06:36:53;100997.72;;;11.14;91.79
47524;BME280;33253;42.144;25.884;2023-04-28T06:39:20;100958.00;;;10.93;91.93
47524;BME280;33253;42.144;25.884;2023-04-28T06:41:46;101003.22;;;11.22;90.99
47524;BME280;33253;42.144;25.884;2023-04-28T06:44:11;101032.19;;;11.56;92.74
47524;BME280;33253;42.144;25.884;2023-04-28T06:46:37;101037.88;;;11.68;91.53
47524;BME280;33253;42.144;25.884;2023-04-28T06:49:03;101027.66;;;11.71;93.55
47524;BME280;33253;42.144;25.884;2023-04-28T06:51:30;101038.25;;;11.77;90.97
47524;BME280;33253;42.144;25.884;2023-04-28T06:53:57;101035.56;;;11.74;92.18
47524;BME280;33253;42.144;25.884;2023-04-28T06:56:23;100986.66;;;11.38;91.37
47524;BME280;33253;42.144;25.884;2023-04-28T06:58:49;101036.66;;;11.60;91.13
47524;BME280;33253;42.144;25.884;2023-04-28T07:01:15;101037.66;;;11.42;90.71
47524;BME280;33253;42.144;25.884;2023-04-28T07:03:40;101037.88;;;11.47;92.94
47524;BME280;33253;42.144;25.884;2023-04-28T07:06:06;101035.22;;;11.45;92.19
47524;BME280;33253;42.144;25.884;2023-04-28T07:08:31;101047.94;;;11.41;93.31
47524;BME280;33253;42.144;25.884;2023-04-28T07:10:57;101038.97;;;11.32;92.31
47524;BME280;33253;42.144;25.884;2023-04-28T07:13:22;101039.53;;;11.25;92.60
47524;BME280;33253;42.144;25.884;2023-04-28T07:15:48;101031.09;;;11.29;93.91
47524;BME280;33253;42.144;25.884;2023-04-28T07:18:13;101035.50;;;11.32;92.97
47524;BME280;33253;42.144;25.884;2023-04-28T07:20:39;101034.91;;;11.38;90.83
47524;BME280;33253;42.144;25.884;2023-04-28T07:23:05;101038.47;;;11.41;90.15
47524;BME280;33253;42.144;25.884;2023-04-28T07:25:30;101004.53;;;11.33;89.79
47524;BME280;33253;42.144;25.884;2023-04-28T07:27:56;101037.25;;;11.53;84.47
47524;BME280;33253;42.144;25.884;2023-04-28T07:30:21;101038.25;;;11.56;84.53
47524;BME280;33253;42.144;25.884;2023-04-28T07:32:47;101039.41;;;11.63;83.93
47524;BME280;33253;42.144;25.884;2023-04-28T07:35:12;101037.19;;;11.72;78.88
47524;BME280;33253;42.144;25.884;2023-04-28T07:37:38;101037.38;;;11.77;77.90
47524;BME280;33253;42.144;25.884;2023-04-28T07:40:24;101037.94;;;11.91;77.91
47524;BME280;33253;42.144;25.884;2023-04-28T07:42:50;101024.75;;;11.85;79.73
47524;BME280;33253;42.144;25.884;2023-04-28T07:45:16;101000.59;;;11.84;79.98
47524;BME280;33253;42.144;25.884;2023-04-28T07:47:41;101024.97;;;12.10;77.30
47524;BME280;33253;42.144;25.884;2023-04-28T07:50:07;101025.38;;;12.21;75.75
47524;BME280;33253;42.144;25.884;2023-04-28T07:52:33;101027.06;;;12.43;75.23
47524;BME280;33253;42.144;25.884;2023-04-28T07:54:59;101018.63;;;12.48;76.97
47524;BME280;33253;42.144;25.884;2023-04-28T07:57:26;101027.78;;;12.62;76.83
47524;BME280;33253;42.144;25.884;2023-04-28T07:59:53;101019.72;;;12.54;74.62
47524;BME280;33253;42.144;25.884;2023-04-28T08:02:19;101019.41;;;12.69;75.55
47524;BME280;33253;42.144;25.884;2023-04-28T08:04:45;101016.00;;;12.70;73.73
47524;BME280;33253;42.144;25.884;2023-04-28T08:07:11;100989.97;;;12.67;75.85
47524;BME280;33253;42.144;25.884;2023-04-28T08:09:37;101020.84;;;13.09;72.68
47524;BME280;33253;42.144;25.884;2023-04-28T08:12:04;101016.22;;;13.25;74.30
47524;BME280;33253;42.144;25.884;2023-04-28T08:14:29;101016.28;;;13.26;70.14
47524;BME280;33253;42.144;25.884;2023-04-28T08:17:03;100989.88;;;13.13;65.70
47524;BME280;33253;42.144;25.884;2023-04-28T08:19:28;101006.84;;;13.29;62.93
47524;BME280;33253;42.144;25.884;2023-04-28T08:21:53;100994.00;;;13.33;62.03
47524;BME280;33253;42.144;25.884;2023-04-28T08:24:19;100997.38;;;13.31;60.78
47524;BME280;33253;42.144;25.884;2023-04-28T08:26:45;100994.91;;;13.34;59.21
47524;BME280;33253;42.144;25.884;2023-04-28T08:29:10;100991.81;;;13.44;59.40
47524;BME280;33253;42.144;25.884;2023-04-28T08:31:36;101001.34;;;13.43;57.76
47524;BME280;33253;42.144;25.884;2023-04-28T08:34:01;100982.59;;;13.52;57.19
47524;BME280;33253;42.144;25.884;2023-04-28T08:36:27;100985.59;;;13.65;59.75
47524;BME280;33253;42.144;25.884;2023-04-28T08:38:56;100981.19;;;13.62;57.94
47524;BME280;33253;42.144;25.884;2023-04-28T08:41:23;100971.28;;;13.78;61.09
47524;BME280;33253;42.144;25.884;2023-04-28T08:43:52;100970.63;;;13.83;58.97
47524;BME280;33253;42.144;25.884;2023-04-28T08:46:20;100957.38;;;13.75;59.10
47524;BME280;33253;42.144;25.884;2023-04-28T08:48:46;100973.25;;;13.85;58.27
47524;BME280;33253;42.144;25.884;2023-04-28T08:51:32;100933.72;;;13.65;60.51
47524;BME280;33253;42.144;25.884;2023-04-28T08:54:01;100973.31;;;14.15;60.73
47524;BME280;33253;42.144;25.884;2023-04-28T08:56:31;100976.94;;;14.20;55.55
47524;BME280;33253;42.144;25.884;2023-04-28T08:59:03;100966.00;;;14.02;56.54
47524;BME280;33253;42.144;25.884;2023-04-28T09:01:30;100965.41;;;14.11;58.79
47524;BME280;33253;42.144;25.884;2023-04-28T09:03:56;100972.53;;;14.18;55.06
47524;BME280;33253;42.144;25.884;2023-04-28T09:06:21;100967.25;;;14.15;56.48
47524;BME280;33253;42.144;25.884;2023-04-28T09:08:47;100958.25;;;14.03;58.50
47524;BME280;33253;42.144;25.884;2023-04-28T09:11:12;100961.25;;;13.88;54.74
47524;BME280;33253;42.144;25.884;2023-04-28T09:13:39;100941.69;;;13.71;53.74
47524;BME280;33253;42.144;25.884;2023-04-28T09:16:05;100968.34;;;13.67;53.82
47524;BME280;33253;42.144;25.884;2023-04-28T09:18:31;100957.66;;;13.83;53.43
47524;BME280;33253;42.144;25.884;2023-04-28T09:21:08;100953.91;;;14.02;54.48
47524;BME280;33253;42.144;25.884;2023-04-28T09:23:45;100955.84;;;14.10;55.87
47524;BME280;33253;42.144;25.884;2023-04-28T09:26:11;100954.69;;;14.00;55.19
47524;BME280;33253;42.144;25.884;2023-04-28T09:28:37;100937.16;;;13.93;53.48
47524;BME280;33253;42.144;25.884;2023-04-28T09:31:03;100949.06;;;14.15;54.80
47524;BME280;33253;42.144;25.884;2023-04-28T09:33:28;100935.00;;;14.37;55.06
47524;BME280;33253;42.144;25.884;2023-04-28T09:35:54;100940.31;;;14.42;53.96
47524;BME280;33253;42.144;25.884;2023-04-28T09:38:20;100943.41;;;14.59;52.72
47524;BME280;33253;42.144;25.884;2023-04-28T09:45:50;100931.03;;;14.19;55.87
47524;BME280;33253;42.144;25.884;2023-04-28T09:48:16;100914.72;;;13.95;55.76
47524;BME280;33253;42.144;25.884;2023-04-28T09:50:43;100902.47;;;13.62;57.07
47524;BME280;33253;42.144;25.884;2023-04-28T09:53:10;100932.72;;;13.61;57.70
47524;BME280;33253;42.144;25.884;2023-04-28T09:55:40;100919.75;;;13.61;57.85
47524;BME280;33253;42.144;25.884;2023-04-28T09:58:08;100929.50;;;13.68;60.47
47524;BME280;33253;42.144;25.884;2023-04-28T10:00:38;100924.81;;;13.58;55.87
47524;BME280;33253;42.144;25.884;2023-04-28T10:03:05;100914.88;;;13.72;59.08
47524;BME280;33253;42.144;25.884;2023-04-28T10:05:32;100911.38;;;13.70;56.81
47524;BME280;33253;42.144;25.884;2023-04-28T10:08:00;100911.75;;;14.11;60.36
47524;BME280;33253;42.144;25.884;2023-04-28T10:10:26;100843.47;;;14.15;56.04
47524;BME280;33253;42.144;25.884;2023-04-28T10:12:54;100904.13;;;14.78;54.58
47524;BME280;33253;42.144;25.884;2023-04-28T10:15:21;100870.16;;;14.70;59.59
47524;BME280;33253;42.144;25.884;2023-04-28T10:17:49;100903.72;;;14.96;54.37
47524;BME280;33253;42.144;25.884;2023-04-28T10:20:15;100898.34;;;14.90;51.24
47524;BME280;33253;42.144;25.884;2023-04-28T10:25:25;100894.63;;;15.49;57.91
47524;BME280;33253;42.144;25.884;2023-04-28T10:27:50;100890.34;;;15.89;55.01
47524;BME280;33253;42.144;25.884;2023-04-28T10:30:21;100884.72;;;16.10;52.94
47524;BME280;33253;42.144;25.884;2023-04-28T10:35:42;100886.56;;;16.59;53.49
47524;BME280;33253;42.144;25.884;2023-04-28T10:38:15;100881.22;;;16.51;49.56
47524;BME280;33253;42.144;25.884;2023-04-28T10:40:41;100882.31;;;16.64;49.79
47524;BME280;33253;42.144;25.884;2023-04-28T10:43:09;100871.69;;;16.55;48.18
47524;BME280;33253;42.144;25.884;2023-04-28T10:58:38;100854.72;;;16.29;47.53
47524;BME280;33253;42.144;25.884;2023-04-28T11:03:48;100863.09;;;16.14;48.92
47524;BME280;33253;42.144;25.884;2023-04-28T11:06:38;100875.63;;;15.53;48.88
47524;BME280;33253;42.144;25.884;2023-04-28T11:11:41;100851.50;;;16.43;44.79
47524;BME280;33253;42.144;25.884;2023-04-28T11:16:54;100803.19;;;16.14;44.85
47524;BME280;33253;42.144;25.884;2023-04-28T11:19:22;100843.28;;;16.69;45.15
47524;BME280;33253;42.144;25.884;2023-04-28T11:21:49;100841.41;;;17.10;48.20
47524;BME280;33253;42.144;25.884;2023-04-28T11:24:15;100848.50;;;17.19;51.63
47524;BME280;33253;42.144;25.884;2023-04-28T11:26:41;100830.22;;;17.18;48.88
47524;BME280;33253;42.144;25.884;2023-04-28T11:29:08;100841.38;;;17.67;48.78
47524;BME280;33253;42.144;25.884;2023-04-28T11:31:33;100836.13;;;17.66;45.72
47524;BME280;33253;42.144;25.884;2023-04-28T11:33:59;100835.44;;;17.79;50.59
47524;BME280;33253;42.144;25.884;2023-04-28T11:36:32;100845.97;;;17.87;50.22
47524;BME280;33253;42.144;25.884;2023-04-28T11:38:59;100837.94;;;17.11;44.57
47524;BME280;33253;42.144;25.884;2023-04-28T11:41:25;100841.41;;;16.60;46.69
47524;BME280;33253;42.144;25.884;2023-04-28T11:43:51;100851.38;;;16.86;51.13
47524;BME280;33253;42.144;25.884;2023-04-28T11:46:18;100848.28;;;17.05;48.89
47524;BME280;33253;42.144;25.884;2023-04-28T11:48:45;100810.84;;;17.03;47.51
47524;BME280;33253;42.144;25.884;2023-04-28T11:51:36;100829.03;;;17.55;51.53
47524;BME280;33253;42.144;25.884;2023-04-28T11:54:03;100849.25;;;17.72;47.23
47524;BME280;33253;42.144;25.884;2023-04-28T11:56:29;100828.34;;;17.69;47.25
47524;BME280;33253;42.144;25.884;2023-04-28T11:59:00;100804.16;;;17.21;45.79
47524;BME280;33253;42.144;25.884;2023-04-28T12:01:25;100829.38;;;17.19;46.36
47524;BME280;33253;42.144;25.884;2023-04-28T12:03:51;100835.59;;;16.75;46.67
47524;BME280;33253;42.144;25.884;2023-04-28T12:06:17;100831.44;;;16.86;47.64
47524;BME280;33253;42.144;25.884;2023-04-28T12:08:43;100827.53;;;17.14;47.68
47524;BME280;33253;42.144;25.884;2023-04-28T12:11:10;100826.78;;;17.20;48.09
47524;BME280;33253;42.144;25.884;2023-04-28T12:13:37;100823.84;;;17.00;47.90
47524;BME280;33253;42.144;25.884;2023-04-28T12:16:05;100814.16;;;16.91;47.51
47524;BME280;33253;42.144;25.884;2023-04-28T12:18:57;100815.03;;;16.92;44.24
47524;BME280;33253;42.144;25.884;2023-04-28T12:21:24;100795.22;;;16.53;49.00
47524;BME280;33253;42.144;25.884;2023-04-28T12:23:49;100784.53;;;16.89;49.31
47524;BME280;33253;42.144;25.884;2023-04-28T12:26:23;100786.81;;;17.24;49.08
47524;BME280;33253;42.144;25.884;2023-04-28T12:28:49;100786.88;;;17.27;46.23
47524;BME280;33253;42.144;25.884;2023-04-28T12:31:15;100794.66;;;17.24;49.06
47524;BME280;33253;42.144;25.884;2023-04-28T12:33:40;100785.00;;;17.19;46.42
47524;BME280;33253;42.144;25.884;2023-04-28T12:36:06;100775.91;;;16.93;48.83
47524;BME280;33253;42.144;25.884;2023-04-28T12:38:31;100794.13;;;17.49;48.63
47524;BME280;33253;42.144;25.884;2023-04-28T12:40:57;100785.72;;;17.70;47.52
47524;BME280;33253;42.144;25.884;2023-04-28T12:43:23;100778.22;;;17.94;50.23
47524;BME280;33253;42.144;25.884;2023-04-28T12:45:52;100774.00;;;18.09;47.17
47524;BME280;33253;42.144;25.884;2023-04-28T12:48:19;100771.00;;;17.76;43.26
47524;BME280;33253;42.144;25.884;2023-04-28T12:50:44;100745.88;;;17.88;48.97
47524;BME280;33253;42.144;25.884;2023-04-28T12:53:10;100763.41;;;17.95;45.02
47524;BME280;33253;42.144;25.884;2023-04-28T12:55:36;100764.47;;;18.13;43.61
47524;BME280;33253;42.144;25.884;2023-04-28T12:58:04;100730.63;;;18.25;42.06
47524;BME280;33253;42.144;25.884;2023-04-28T13:00:30;100767.44;;;18.50;47.42
47524;BME280;33253;42.144;25.884;2023-04-28T13:02:56;100757.84;;;18.50;45.87
47524;BME280;33253;42.144;25.884;2023-04-28T13:05:21;100746.69;;;18.67;48.01